Time;durP1;ratioP1;P1;durP2;ratioP2;P2;SDS_P1;SDS_P2;PMS_P1;PMS_P2;Temp;Humidity;BMP_temperature;BMP_pressure;BME280_temperature;BME280_humidity;BME280_pressure;Samples;Min_cycle;Max_cycle;Signal;HPM_P1;HPM_P2
2023/07/09 04:17:03;;;;;;;9.30;5.40;;;22.70;99.90;;;;;;5263693;23;20049;-69
2023/07/09 04:19:28;;;;;;;8.15;5.13;;;22.60;99.90;;;;;;4995068;28;20072;-68
2023/07/09 04:21:54;;;;;;;7.70;5.80;;;22.60;99.90;;;;;;5013039;28;20022;-68
2023/07/09 04:24:20;;;;;;;8.82;4.88;;;22.70;99.90;;;;;;5010811;28;20403;-68
2023/07/09 04:26:46;;;;;;;;;;;22.60;99.90;;;;;;4996167;28;20026;-68
2023/07/09 04:29:12;;;;;;;10.95;5.78;;;22.70;99.90;;;;;;5025808;23;19922;-71
2023/07/09 04:31:40;;;;;;;9.68;5.55;;;22.90;99.90;;;;;;5013172;28;20415;-69
2023/07/09 04:34:06;;;;;;;8.65;5.65;;;22.90;99.90;;;;;;5013916;28;20080;-70
2023/07/09 04:36:31;;;;;;;9.30;6.10;;;22.90;99.90;;;;;;4995680;28;20208;-70
2023/07/09 04:38:57;;;;;;;10.45;5.57;;;22.90;99.90;;;;;;5013879;28;20052;-70
2023/07/09 04:41:23;;;;;;;;;;;22.90;99.90;;;;;;5013769;28;20053;-70
2023/07/09 04:43:48;;;;;;;14.63;6.15;;;22.80;99.90;;;;;;4995610;28;19909;-70
2023/07/09 04:46:14;;;;;;;11.27;5.97;;;22.70;99.90;;;;;;4995594;28;20029;-69
2023/07/09 04:48:40;;;;;;;9.95;5.70;;;22.50;99.90;;;;;;5013315;28;20045;-68
2023/07/09 04:51:06;;;;;;;;;;;22.60;99.90;;;;;;5013909;28;20022;-68
2023/07/09 04:53:31;;;;;;;8.98;6.05;;;22.60;99.90;;;;;;4994994;28;20374;-67
2023/07/09 04:55:57;;;;;;;9.75;5.93;;;22.60;99.90;;;;;;5006474;28;20034;-68
2023/07/09 04:58:23;;;;;;;;;;;22.70;99.90;;;;;;5010885;28;20026;-69
2023/07/09 05:00:50;;;;;;;11.13;6.68;;;22.60;99.90;;;;;;5012944;28;19910;-68
2023/07/09 05:03:16;;;;;;;10.50;6.50;;;22.70;99.90;;;;;;5013672;28;20038;-69
2023/07/09 05:05:46;;;;;;;10.57;5.50;;;22.60;99.90;;;;;;4995816;28;20025;-69
2023/07/09 05:08:12;;;;;;;10.85;5.93;;;22.80;99.90;;;;;;5013287;28;20022;-70
2023/07/09 05:10:42;;;;;;;9.73;5.35;;;22.70;99.90;;;;;;5013336;28;20109;-68
2023/07/09 05:13:08;;;;;;;7.20;4.55;;;22.80;99.90;;;;;;5016390;28;20102;-68
2023/07/09 05:15:33;;;;;;;7.00;4.22;;;22.80;99.90;;;;;;5016211;28;20105;-64
2023/07/09 05:17:59;;;;;;;;;;;22.80;99.90;;;;;;5016496;28;20026;-73
2023/07/09 05:20:25;;;;;;;8.32;4.80;;;22.70;99.90;;;;;;4998717;28;19910;-72
2023/07/09 05:22:50;;;;;;;;;;;22.90;99.90;;;;;;4999075;28;20033;-68
2023/07/09 05:25:16;;;;;;;9.57;4.50;;;22.90;99.90;;;;;;5016175;28;20383;-68
2023/07/09 05:27:42;;;;;;;8.63;4.45;;;22.70;99.90;;;;;;5016485;28;20026;-68
2023/07/09 05:30:08;;;;;;;7.13;4.25;;;22.70;99.90;;;;;;5015491;28;20037;-68
2023/07/09 05:32:36;;;;;;;9.45;4.95;;;22.70;99.90;;;;;;5013616;28;20026;-66
2023/07/09 05:35:01;;;;;;;10.73;4.68;;;22.80;99.90;;;;;;5015997;28;20398;-66
2023/07/09 05:37:27;;;;;;;6.82;3.97;;;22.70;99.90;;;;;;5015886;28;20032;-65
2023/07/09 05:39:53;;;;;;;7.65;4.40;;;23.00;99.90;;;;;;5015799;28;20111;-66
2023/07/09 05:42:18;;;;;;;9.15;4.47;;;23.10;99.90;;;;;;4998096;28;20022;-66
2023/07/09 05:44:44;;;;;;;6.60;4.38;;;23.10;99.90;;;;;;5015674;28;20032;-67
2023/07/09 05:47:09;;;;;;;7.15;4.45;;;23.10;99.90;;;;;;5016122;28;20068;-66
2023/07/09 05:49:35;;;;;;;8.65;4.80;;;23.00;99.90;;;;;;5016849;28;20062;-66
2023/07/09 05:52:01;;;;;;;7.50;4.45;;;23.00;99.90;;;;;;5016527;28;20486;-65
2023/07/09 05:54:26;;;;;;;;;;;23.40;99.90;;;;;;4998769;28;20117;-66
2023/07/09 05:56:52;;;;;;;9.23;4.45;;;23.30;99.90;;;;;;4998092;28;20011;-66
2023/07/09 05:59:17;;;;;;;7.57;4.28;;;23.50;99.90;;;;;;5015316;28;20029;-66
2023/07/09 06:01:43;;;;;;;6.28;4.60;;;23.60;99.90;;;;;;5015378;28;20113;-65
2023/07/09 06:04:08;;;;;;;;;;;23.50;99.90;;;;;;4998118;28;20088;-65
2023/07/09 06:06:34;;;;;;;9.20;4.93;;;23.70;99.90;;;;;;5015561;28;20366;-66
2023/07/09 06:09:00;;;;;;;;;;;23.70;99.90;;;;;;5015701;28;20103;-66
2023/07/09 06:11:25;;;;;;;7.85;4.75;;;23.80;99.90;;;;;;5015148;28;20008;-66
2023/07/09 06:13:51;;;;;;;;;;;23.80;99.90;;;;;;5015281;28;20045;-67
2023/07/09 06:16:17;;;;;;;6.63;4.80;;;23.90;99.90;;;;;;4993971;28;20004;-67
2023/07/09 06:18:43;;;;;;;;;;;23.90;99.90;;;;;;4978433;28;20165;-66
2023/07/09 06:21:11;;;;;;;9.02;5.10;;;24.10;99.90;;;;;;4995367;28;20385;-67
2023/07/09 06:23:36;;;;;;;10.45;4.70;;;24.10;99.90;;;;;;4994509;28;20552;-68
2023/07/09 06:26:02;;;;;;;;;;;24.30;99.90;;;;;;4978262;28;20070;-67
2023/07/09 06:28:29;;;;;;;8.13;4.50;;;24.30;99.90;;;;;;4998896;28;20277;-67
2023/07/09 06:30:55;;;;;;;8.40;5.00;;;24.40;99.90;;;;;;4997583;28;20363;-67
2023/07/09 06:33:20;;;;;;;;;;;24.50;99.90;;;;;;5015184;28;20109;-70
2023/07/09 06:35:51;;;;;;;9.02;5.05;;;24.60;99.90;;;;;;5014635;28;20340;-67
2023/07/09 06:38:17;;;;;;;9.60;5.55;;;24.70;99.90;;;;;;5014734;28;20025;-66
2023/07/09 06:40:43;;;;;;;8.32;4.78;;;24.70;99.90;;;;;;5014768;28;20443;-67
2023/07/09 06:43:09;;;;;;;;;;;24.80;99.90;;;;;;5014860;28;20061;-66
2023/07/09 06:45:34;;;;;;;10.35;5.35;;;24.90;99.90;;;;;;5014167;28;20018;-66
2023/07/09 06:48:00;;;;;;;;;;;25.00;99.90;;;;;;5014778;28;20026;-68
2023/07/09 06:50:26;;;;;;;6.97;4.78;;;25.10;99.90;;;;;;5014384;28;19956;-66
2023/07/09 06:52:51;;;;;;;;;;;25.20;99.90;;;;;;5014857;28;20037;-67
2023/07/09 06:55:17;;;;;;;7.35;3.90;;;25.30;99.90;;;;;;5014502;28;20230;-67
2023/07/09 06:57:42;;;;;;;;;;;25.40;99.90;;;;;;4997103;28;20029;-67
2023/07/09 07:00:08;;;;;;;9.30;5.13;;;25.50;99.90;;;;;;4996771;28;19913;-66
2023/07/09 07:02:34;;;;;;;9.35;4.90;;;25.50;99.90;;;;;;4996856;28;20132;-66
2023/07/09 07:04:59;;;;;;;;;;;25.70;99.90;;;;;;5014424;28;20529;-67
2023/07/09 07:07:25;;;;;;;7.72;5.15;;;25.90;99.90;;;;;;5014410;28;19906;-67
2023/07/09 07:09:50;;;;;;;10.82;4.70;;;26.00;99.90;;;;;;5014003;28;20038;-67
2023/07/09 07:12:27;;;;;;;7.85;4.90;;;26.00;99.90;;;;;;5014159;28;20395;-68
2023/07/09 07:14:54;;;;;;;7.20;4.40;;;26.10;99.90;;;;;;4996247;28;20545;-68
2023/07/09 07:17:20;;;;;;;8.25;5.13;;;26.10;99.90;;;;;;5013925;28;20040;-67
2023/07/09 07:19:45;;;;;;;15.63;5.35;;;26.20;99.90;;;;;;4996150;28;20500;-67
2023/07/09 07:22:11;;;;;;;8.52;4.80;;;26.20;99.90;;;;;;4996332;28;20112;-68
2023/07/09 07:24:36;;;;;;;7.93;4.72;;;26.30;99.90;;;;;;4996311;28;20032;-68
2023/07/09 07:27:02;;;;;;;8.70;4.90;;;26.40;99.90;;;;;;5014354;28;20424;-68
2023/07/09 07:29:28;;;;;;;10.40;5.28;;;26.40;99.80;;;;;;5013612;28;20536;-71
2023/07/09 07:31:54;;;;;;;6.78;5.03;;;26.60;99.40;;;;;;5013835;28;20034;-68
2023/07/09 07:34:19;;;;;;;8.70;5.15;;;26.70;99.50;;;;;;5013793;28;20252;-66
2023/07/09 07:36:45;;;;;;;9.32;4.53;;;26.80;99.90;;;;;;5014053;28;20029;-66
2023/07/09 07:39:10;;;;;;;8.93;5.32;;;26.90;99.10;;;;;;5014309;28;20528;-67
2023/07/09 07:41:36;;;;;;;7.95;4.70;;;27.00;98.80;;;;;;5013691;28;20018;-68
2023/07/09 07:44:02;;;;;;;6.30;4.18;;;27.10;99.20;;;;;;4983423;28;20168;-67
2023/07/09 07:46:29;;;;;;;6.40;4.70;;;27.20;98.10;;;;;;4994569;28;20063;-66
2023/07/09 07:48:54;;;;;;;8.50;4.95;;;27.30;98.10;;;;;;4977116;28;20027;-68
2023/07/09 07:51:22;;;;;;;8.63;4.18;;;27.50;97.80;;;;;;4994359;28;20038;-66
2023/07/09 07:53:48;;;;;;;7.28;4.45;;;27.60;97.30;;;;;;4994542;28;20033;-67
2023/07/09 07:56:14;;;;;;;7.57;4.63;;;27.70;97.50;;;;;;4994295;28;20117;-67
2023/07/09 07:58:40;;;;;;;9.23;4.88;;;27.80;96.90;;;;;;5000307;28;20073;-69
2023/07/09 08:01:05;;;;;;;10.93;5.18;;;28.00;98.80;;;;;;4995902;28;20056;-67
2023/07/09 08:03:31;;;;;;;6.88;4.65;;;28.10;97.50;;;;;;5013745;28;20072;-67
2023/07/09 08:05:57;;;;;;;7.47;4.47;;;28.30;97.70;;;;;;4996187;28;20022;-68
2023/07/09 08:08:22;;;;;;;7.80;4.78;;;28.40;95.70;;;;;;4995961;28;20072;-67
2023/07/09 08:10:50;;;;;;;6.53;4.05;;;28.70;96.50;;;;;;4995927;28;20467;-67
2023/07/09 08:13:15;;;;;;;7.38;4.85;;;29.00;96.80;;;;;;5014007;28;20018;-67
2023/07/09 08:15:42;;;;;;;5.25;4.30;;;29.70;94.50;;;;;;5013433;28;20075;-68
2023/07/09 08:18:07;;;;;;;9.77;4.88;;;31.40;91.50;;;;;;4995781;28;20022;-69
2023/07/09 08:20:33;;;;;;;6.93;4.07;;;33.60;90.10;;;;;;5013424;28;20029;-68
2023/07/09 08:22:59;;;;;;;7.88;4.43;;;36.20;83.00;;;;;;5013204;28;20037;-68
2023/07/09 08:25:25;;;;;;;7.05;4.65;;;38.30;76.70;;;;;;5013523;28;20049;-68
2023/07/09 08:27:50;;;;;;;8.15;4.38;;;40.10;71.50;;;;;;4990451;28;20042;-70
2023/07/09 08:30:16;;;;;;;6.13;4.03;;;41.30;65.80;;;;;;4992601;28;20080;-69
2023/07/09 08:32:42;;;;;;;6.07;3.55;;;42.20;61.60;;;;;;5012425;28;20026;-69
2023/07/09 08:35:10;;;;;;;6.97;3.88;;;43.00;61.00;;;;;;5013377;28;20026;-69
2023/07/09 08:37:35;;;;;;;6.47;4.35;;;43.50;58.10;;;;;;5012870;28;20419;-68
2023/07/09 08:40:01;;;;;;;7.40;4.53;;;42.80;58.60;;;;;;5009858;28;20034;-68
2023/07/09 08:42:39;;;;;;;6.70;4.53;;;43.90;56.90;;;;;;5003541;28;20490;-69
2023/07/09 08:45:10;;;;;;;6.22;3.90;;;44.10;56.60;;;;;;4995278;28;20479;-68
2023/07/09 08:48:16;;;;;;;5.38;3.85;;;44.80;56.50;;;;;;5016483;28;20030;-69
2023/07/09 08:50:43;;;;;;;;;;;46.40;54.10;;;;;;5008452;28;20120;-68
2023/07/09 08:53:21;;;;;;;5.80;4.60;;;45.80;54.20;;;;;;5017637;28;20362;-70
2023/07/09 08:55:50;;;;;;;5.22;4.22;;;46.30;54.40;;;;;;5017360;28;20034;-69
2023/07/09 08:58:27;;;;;;;4.93;4.40;;;47.20;53.80;;;;;;4999066;28;20109;-69
2023/07/09 09:01:00;;;;;;;4.05;3.58;;;47.30;52.00;;;;;;5016804;28;20022;-70
2023/07/09 09:03:37;;;;;;;7.50;4.70;;;47.00;51.70;;;;;;4999259;28;20521;-65
2023/07/09 09:06:09;;;;;;;5.28;4.20;;;47.30;51.40;;;;;;5016866;28;20026;-66
2023/07/09 09:08:55;;;;;;;5.85;4.18;;;47.80;50.70;;;;;;5016416;28;20038;-66
2023/07/09 09:11:24;;;;;;;5.45;4.70;;;48.10;50.30;;;;;;5010625;28;20022;-66
2023/07/09 09:13:53;;;;;;;8.02;4.68;;;47.70;52.40;;;;;;5015698;28;20418;-66
2023/07/09 09:16:34;;;;;;;4.70;4.30;;;48.90;51.70;;;;;;5015720;28;20036;-65
2023/07/09 09:19:01;;;;;;;6.28;4.50;;;50.10;50.60;;;;;;4998258;28;20029;-66
2023/07/09 09:21:33;;;;;;;6.70;4.68;;;50.10;48.50;;;;;;5016111;28;20339;-66
2023/07/09 09:24:20;;;;;;;6.45;4.28;;;50.00;50.30;;;;;;5016085;28;20424;-66
2023/07/09 09:26:48;;;;;;;7.10;4.55;;;50.00;48.80;;;;;;5016181;28;20160;-66
2023/07/09 09:29:16;;;;;;;5.10;4.50;;;50.30;48.20;;;;;;4997819;28;20037;-66
2023/07/09 09:31:45;;;;;;;6.93;4.65;;;50.00;49.80;;;;;;4998263;28;20030;-66
2023/07/09 09:34:22;;;;;;;7.20;4.88;;;50.80;49.00;;;;;;4998221;28;20026;-67
2023/07/09 09:36:48;;;;;;;5.20;4.70;;;50.20;48.90;;;;;;4998166;28;20120;-66
2023/07/09 09:39:14;;;;;;;5.80;4.63;;;50.90;47.50;;;;;;4998213;28;20105;-67
2023/07/09 09:41:42;;;;;;;5.30;4.68;;;51.50;47.70;;;;;;4998133;28;20529;-67
2023/07/09 09:44:18;;;;;;;5.05;4.55;;;51.40;47.30;;;;;;5015476;28;20018;-66
2023/07/09 09:46:44;;;;;;;6.32;4.45;;;50.30;46.90;;;;;;5016007;28;20490;-66
2023/07/09 09:49:10;;;;;;;5.07;4.60;;;49.40;48.30;;;;;;5016130;28;20040;-66
2023/07/09 09:51:43;;;;;;;7.18;6.50;;;49.50;47.10;;;;;;5015730;28;20030;-66
2023/07/09 09:54:16;;;;;;;6.10;4.38;;;49.60;47.50;;;;;;5015957;28;20490;-67
2023/07/09 09:56:43;;;;;;;5.85;4.47;;;48.90;48.10;;;;;;5015607;28;20072;-66
2023/07/09 09:59:21;;;;;;;5.68;4.78;;;49.30;48.40;;;;;;5014138;28;20032;-66
2023/07/09 10:01:46;;;;;;;6.50;4.03;;;48.60;48.30;;;;;;5015539;28;20026;-66
2023/07/09 10:04:18;;;;;;;5.00;4.50;;;48.80;48.40;;;;;;5015443;28;20018;-66
2023/07/09 10:06:48;;;;;;;4.97;4.47;;;48.80;47.40;;;;;;5015697;28;20034;-67
2023/07/09 10:09:26;;;;;;;6.32;4.35;;;49.40;47.90;;;;;;5015597;28;20061;-67
2023/07/09 10:12:30;;;;;;;4.40;4.00;;;48.70;46.70;;;;;;5015416;28;20386;-67
2023/07/09 10:15:20;;;;;;;4.93;4.17;;;47.80;48.00;;;;;;5015300;28;20022;-66
2023/07/09 10:17:58;;;;;;;7.13;3.97;;;48.10;47.40;;;;;;5015136;28;20359;-66
2023/07/09 10:20:35;;;;;;;4.82;4.32;;;47.40;48.30;;;;;;4997574;28;20026;-66
2023/07/09 10:23:20;;;;;;;5.57;4.07;;;47.50;48.00;;;;;;5003849;28;20150;-66
2023/07/09 10:25:57;;;;;;;5.40;4.57;;;47.50;47.00;;;;;;4995630;28;20083;-67
2023/07/09 10:31:17;;;;;;;8.98;4.00;;;48.10;47.30;;;;;;5038471;28;20103;-68
2023/07/09 10:34:01;;;;;;;5.95;4.28;;;47.90;46.60;;;;;;5017456;28;20496;-69
2023/07/09 10:36:33;;;;;;;4.70;4.20;;;47.70;47.70;;;;;;5035556;28;20034;-68
2023/07/09 10:39:06;;;;;;;4.95;4.10;;;47.60;47.10;;;;;;5035385;28;20026;-68
2023/07/09 10:41:36;;;;;;;4.18;3.78;;;47.60;47.50;;;;;;5035144;28;20120;-69
2023/07/09 10:44:28;;;;;;;4.80;4.13;;;47.10;47.50;;;;;;5034944;28;20021;-68
2023/07/09 10:47:01;;;;;;;6.43;3.97;;;46.50;47.20;;;;;;5034821;28;20037;-69
2023/07/09 10:49:35;;;;;;;6.72;4.15;;;46.30;48.00;;;;;;5034671;28;20034;-68
2023/07/09 10:52:23;;;;;;;4.95;3.60;;;47.30;47.40;;;;;;5035075;28;20044;-69
2023/07/09 10:55:09;;;;;;;5.47;3.53;;;47.60;47.30;;;;;;5034762;28;20068;-69
2023/07/09 10:58:04;;;;;;;4.63;3.63;;;47.90;46.80;;;;;;5034381;28;20037;-68
2023/07/09 11:00:40;;;;;;;5.00;3.63;;;47.00;46.90;;;;;;5034142;28;20083;-68
2023/07/09 11:03:43;;;;;;;4.45;3.42;;;46.20;47.60;;;;;;5031792;28;20096;-69
2023/07/09 11:06:24;;;;;;;7.75;3.97;;;46.30;46.80;;;;;;5014310;28;20017;-68
2023/07/09 11:08:52;;;;;;;6.00;3.80;;;46.40;46.40;;;;;;5014547;28;20029;-68
2023/07/09 11:11:48;;;;;;;5.88;3.60;;;46.30;47.30;;;;;;4996784;28;20124;-67
2023/07/09 11:14:43;;;;;;;4.38;3.70;;;46.20;46.70;;;;;;5012240;28;20548;-69
2023/07/09 11:17:19;;;;;;;3.90;3.55;;;45.50;47.20;;;;;;5014948;28;20121;-68
2023/07/09 11:19:48;;;;;;;6.18;3.60;;;43.50;47.60;;;;;;5014120;28;20026;-69
2023/07/09 11:22:37;;;;;;;4.38;3.30;;;42.10;48.70;;;;;;5014245;28;20037;-68
2023/07/09 11:25:09;;;;;;;4.05;3.30;;;40.60;49.80;;;;;;4997167;28;20025;-71
2023/07/09 11:27:52;;;;;;;6.38;3.60;;;39.30;51.60;;;;;;4997423;28;20040;-73
2023/07/09 11:30:26;;;;;;;8.57;4.32;;;38.80;52.50;;;;;;5021500;28;20501;-72
2023/07/09 11:32:56;;;;;;;11.73;4.47;;;38.60;52.90;;;;;;5016501;28;20033;-74
2023/07/09 11:35:24;;;;;;;4.38;3.17;;;38.10;52.80;;;;;;5016915;28;20025;-74
2023/07/09 11:37:52;;;;;;;6.32;3.25;;;37.80;52.40;;;;;;5016175;28;20500;-72
2023/07/09 11:40:19;;;;;;;4.90;3.67;;;37.40;52.70;;;;;;5016131;28;20021;-71
2023/07/09 11:42:55;;;;;;;5.95;3.40;;;37.30;53.20;;;;;;5034654;28;20076;-72
2023/07/09 11:45:42;;;;;;;6.97;3.75;;;37.00;53.40;;;;;;5037766;28;20022;-79
2023/07/09 11:48:23;;;;;;;6.55;3.70;;;36.90;53.80;;;;;;5012181;28;20026;-73
2023/07/09 11:50:52;;;;;;;5.68;3.33;;;37.00;53.80;;;;;;5031545;28;20523;-73
2023/07/09 11:53:41;;;;;;;6.30;3.50;;;37.10;53.70;;;;;;5024613;28;20489;-73
2023/07/09 11:56:08;;;;;;;4.28;3.28;;;37.00;53.10;;;;;;5014493;28;20030;-75
2023/07/09 11:58:34;;;;;;;5.72;3.25;;;37.10;52.80;;;;;;4997065;28;20479;-74
2023/07/09 12:01:04;;;;;;;3.60;2.85;;;37.20;52.50;;;;;;5026844;28;20055;-74
2023/07/09 12:03:36;;;;;;;7.05;3.83;;;37.20;52.90;;;;;;5033908;28;20090;-73
2023/07/09 12:06:04;;;;;;;5.90;3.10;;;37.10;53.40;;;;;;5033318;28;20076;-74
2023/07/09 12:08:39;;;;;;;4.47;3.42;;;37.10;53.00;;;;;;5015709;28;20060;-74
2023/07/09 12:11:05;;;;;;;4.10;3.27;;;37.20;53.30;;;;;;5033404;28;20393;-75
2023/07/09 12:13:38;;;;;;;5.32;3.65;;;37.00;52.00;;;;;;5015567;28;20037;-74
2023/07/09 12:16:03;;;;;;;5.85;3.67;;;36.70;53.00;;;;;;5015357;28;20389;-74
2023/07/09 12:18:30;;;;;;;5.80;3.63;;;36.90;52.00;;;;;;5031819;28;20108;-73
2023/07/09 12:20:56;;;;;;;5.70;3.00;;;36.80;51.00;;;;;;5033859;28;20064;-74
2023/07/09 12:23:23;;;;;;;6.05;3.13;;;36.80;49.70;;;;;;5037395;28;20049;-74
2023/07/09 12:25:51;;;;;;;5.35;3.05;;;36.90;50.10;;;;;;5037758;28;20026;-74
2023/07/09 12:28:18;;;;;;;6.57;3.20;;;36.90;49.30;;;;;;5019070;28;20620;-74
2023/07/09 12:30:48;;;;;;;7.30;3.67;;;36.70;49.60;;;;;;5018731;28;20072;-74
2023/07/09 12:33:22;;;;;;;3.78;3.05;;;36.60;49.40;;;;;;5037951;28;20384;-74
2023/07/09 12:35:54;;;;;;;4.45;3.08;;;36.70;49.90;;;;;;5019147;28;20029;-74
2023/07/09 12:38:22;;;;;;;5.63;3.30;;;36.70;49.20;;;;;;5019239;28;20214;-74
2023/07/09 12:40:49;;;;;;;7.28;3.45;;;36.60;49.80;;;;;;5019037;28;20029;-73
2023/07/09 12:43:31;;;;;;;7.38;3.70;;;36.80;49.90;;;;;;5019277;28;20630;-75
2023/07/09 12:45:58;;;;;;;5.90;3.53;;;36.90;49.70;;;;;;5036460;28;20075;-73
2023/07/09 12:48:26;;;;;;;4.68;3.25;;;37.00;48.70;;;;;;5036081;28;20389;-73
2023/07/09 12:50:58;;;;;;;6.13;3.20;;;36.90;48.90;;;;;;5031452;28;20553;-75
2023/07/09 12:53:26;;;;;;;8.60;2.85;;;37.00;49.10;;;;;;5024743;28;20061;-74
2023/07/09 12:55:58;;;;;;;6.78;3.47;;;37.00;48.90;;;;;;4999332;28;20058;-72
2023/07/09 12:58:32;;;;;;;5.47;3.50;;;37.10;48.70;;;;;;4997835;28;20026;-73
2023/07/09 13:01:04;;;;;;;4.88;3.47;;;37.20;49.20;;;;;;5029071;28;20029;-74
2023/07/09 13:03:32;;;;;;;7.40;3.33;;;37.30;48.30;;;;;;5036775;28;20103;-73
2023/07/09 13:06:20;;;;;;;5.63;3.50;;;37.30;48.00;;;;;;5036699;28;20022;-76
2023/07/09 13:08:46;;;;;;;6.50;3.20;;;37.20;48.30;;;;;;5036632;28;20045;-71
2023/07/09 13:11:16;;;;;;;6.15;3.70;;;37.30;48.50;;;;;;5018946;28;20296;-76
2023/07/09 13:13:53;;;;;;;7.90;3.30;;;37.30;48.70;;;;;;5036425;28;20022;-76
2023/07/09 13:16:19;;;;;;;5.18;3.40;;;37.40;48.50;;;;;;5036446;28;20386;-75
2023/07/09 13:18:45;;;;;;;5.63;3.40;;;37.40;48.60;;;;;;5018785;28;20037;-70
2023/07/09 13:21:17;;;;;;;8.52;3.30;;;37.40;48.00;;;;;;5036068;28;20025;-72
2023/07/09 13:23:43;;;;;;;5.97;3.33;;;37.40;47.90;;;;;;5035916;28;20017;-71
2023/07/09 13:26:09;;;;;;;6.50;3.45;;;37.50;48.30;;;;;;5033876;28;20026;-75
2023/07/09 13:28:35;;;;;;;4.57;3.28;;;37.70;48.70;;;;;;5017129;28;20030;-74
2023/07/09 13:31:14;;;;;;;6.63;3.10;;;37.70;47.70;;;;;;5012278;28;20068;-74
2023/07/09 13:33:54;;;;;;;4.65;3.20;;;37.70;48.00;;;;;;5016900;28;20091;-74
2023/07/09 13:36:19;;;;;;;7.60;3.40;;;37.60;48.20;;;;;;5019301;28;20465;-74
2023/07/09 13:38:45;;;;;;;6.70;3.30;;;37.60;48.00;;;;;;5036030;28;20049;-74
2023/07/09 13:41:14;;;;;;;7.32;4.38;;;37.50;47.70;;;;;;5036050;28;20030;-73
2023/07/09 13:43:43;;;;;;;4.30;3.45;;;37.60;47.50;;;;;;5019006;28;20355;-73
2023/07/09 13:46:10;;;;;;;7.78;3.50;;;37.60;48.90;;;;;;5035948;28;20059;-74
2023/07/09 13:48:36;;;;;;;6.20;3.88;;;37.50;49.80;;;;;;5018128;28;20083;-74
2023/07/09 13:51:18;;;;;;;7.63;3.97;;;37.50;49.80;;;;;;5018514;28;20101;-74
2023/07/09 13:53:44;;;;;;;12.65;9.15;;;37.70;50.10;;;;;;5036166;28;20127;-74
2023/07/09 13:56:10;;;;;;;7.57;4.60;;;37.70;50.80;;;;;;5018743;28;20388;-73
2023/07/09 13:58:36;;;;;;;5.93;3.78;;;37.70;51.30;;;;;;5034996;28;20033;-73
2023/07/09 14:01:18;;;;;;;6.75;3.53;;;37.60;51.80;;;;;;5010072;28;20030;-74
2023/07/09 14:03:44;;;;;;;9.15;3.70;;;37.60;52.30;;;;;;4999067;28;20113;-74
2023/07/09 14:06:15;;;;;;;6.88;3.70;;;37.60;51.70;;;;;;5001271;28;20444;-73
2023/07/09 14:08:40;;;;;;;6.88;3.33;;;37.70;51.00;;;;;;5017707;28;20052;-74
2023/07/09 14:11:11;;;;;;;4.43;3.20;;;37.70;50.50;;;;;;5017821;28;20053;-74
2023/07/09 14:13:37;;;;;;;6.25;4.10;;;37.80;50.40;;;;;;5017293;28;20440;-73
2023/07/09 14:16:03;;;;;;;7.13;3.80;;;37.80;50.60;;;;;;5017334;28;20061;-73
2023/07/09 14:18:28;;;;;;;5.13;3.58;;;37.80;50.80;;;;;;5017239;28;20025;-73
2023/07/09 14:20:56;;;;;;;8.27;3.55;;;37.80;50.70;;;;;;5017019;28;20452;-73
2023/07/09 14:23:21;;;;;;;4.60;3.10;;;37.60;50.20;;;;;;5017823;28;20022;-72
2023/07/09 14:25:48;;;;;;;5.10;3.40;;;37.60;50.40;;;;;;5035098;28;20396;-67
2023/07/09 14:28:16;;;;;;;7.88;3.80;;;37.70;50.20;;;;;;5035081;28;20178;-73
2023/07/09 14:30:44;;;;;;;6.95;3.75;;;37.70;50.20;;;;;;5016832;28;20034;-72
2023/07/09 14:33:15;;;;;;;6.70;3.60;;;37.70;51.00;;;;;;5016741;28;20029;-71
2023/07/09 14:35:43;;;;;;;5.85;3.40;;;37.80;51.20;;;;;;5034555;28;20521;-69
2023/07/09 14:38:25;;;;;;;6.47;3.70;;;37.80;50.70;;;;;;5037756;28;20029;-74
2023/07/09 14:40:54;;;;;;;6.78;3.45;;;37.80;50.80;;;;;;5035279;28;20030;-72
2023/07/09 14:43:19;;;;;;;7.72;3.38;;;37.80;49.90;;;;;;5016790;28;20022;-72
2023/07/09 14:45:45;;;;;;;7.53;3.90;;;37.70;50.50;;;;;;5016176;28;20047;-72
2023/07/09 14:48:13;;;;;;;7.40;3.45;;;37.70;50.60;;;;;;5034999;28;20466;-71
2023/07/09 14:50:40;;;;;;;7.45;4.45;;;37.70;50.20;;;;;;5035088;28;20122;-74
2023/07/09 14:53:24;;;;;;;4.45;3.33;;;37.60;50.80;;;;;;5016815;28;20025;-75
2023/07/09 14:55:49;;;;;;;5.82;3.83;;;37.60;50.00;;;;;;5034513;28;20053;-73
2023/07/09 14:58:18;;;;;;;4.72;3.42;;;37.50;50.00;;;;;;4997142;28;20026;-73
2023/07/09 15:00:46;;;;;;;5.18;3.33;;;37.30;49.70;;;;;;5009307;28;20398;-73
2023/07/09 15:03:20;;;;;;;5.00;3.38;;;37.30;50.10;;;;;;5019552;28;20029;-72
2023/07/09 15:05:46;;;;;;;5.85;3.72;;;37.20;50.60;;;;;;5035995;28;20076;-74
2023/07/09 15:08:14;;;;;;;5.10;3.50;;;37.10;51.10;;;;;;5016247;28;20071;-74
2023/07/09 15:10:40;;;;;;;5.30;3.55;;;37.00;51.10;;;;;;5016270;28;20482;-75
2023/07/09 15:13:11;;;;;;;6.15;4.00;;;36.90;50.50;;;;;;5034002;28;20030;-72
2023/07/09 15:15:36;;;;;;;9.40;4.35;;;36.90;50.70;;;;;;5016057;28;20119;-74
2023/07/09 15:18:11;;;;;;;6.00;3.83;;;36.90;51.30;;;;;;5016170;28;20112;-70
2023/07/09 15:20:37;;;;;;;6.80;3.65;;;37.00;51.00;;;;;;5016041;28;20025;-70
2023/07/09 15:23:03;;;;;;;6.00;3.63;;;37.00;51.10;;;;;;5015921;28;20017;-70
2023/07/09 15:25:32;;;;;;;4.30;3.20;;;36.80;51.80;;;;;;5015745;28;20497;-70
2023/07/09 15:27:58;;;;;;;5.43;3.80;;;36.70;52.50;;;;;;5033588;28;20033;-70
2023/07/09 15:30:27;;;;;;;10.27;3.42;;;36.70;52.20;;;;;;5033084;28;20608;-70
2023/07/09 15:32:56;;;;;;;4.85;3.45;;;36.50;53.90;;;;;;5033937;28;20044;-70
2023/07/09 15:35:22;;;;;;;7.55;4.03;;;36.30;52.70;;;;;;5033324;28;20111;-70
2023/07/09 15:37:49;;;;;;;6.25;3.50;;;36.20;53.80;;;;;;5033287;28;20034;-69
2023/07/09 15:40:18;;;;;;;6.32;3.30;;;36.00;52.60;;;;;;5015523;28;20037;-69
2023/07/09 15:42:44;;;;;;;5.07;3.10;;;36.00;52.90;;;;;;5015633;28;20044;-69
2023/07/09 15:45:16;;;;;;;6.38;3.40;;;35.90;52.00;;;;;;5016016;28;20021;-70
2023/07/09 15:47:44;;;;;;;6.70;3.75;;;35.80;53.00;;;;;;5033135;28;20049;-69
2023/07/09 15:50:36;;;;;;;6.47;3.65;;;35.70;52.40;;;;;;5033116;28;20021;-69
2023/07/09 15:53:04;;;;;;;5.00;3.60;;;35.60;54.00;;;;;;5014768;28;20106;-76
2023/07/09 15:55:30;;;;;;;4.70;3.75;;;35.60;52.70;;;;;;5019919;28;20025;-71
2023/07/09 15:57:55;;;;;;;6.82;3.60;;;35.60;53.30;;;;;;5036451;28;20032;-71
2023/07/09 16:00:27;;;;;;;8.10;4.40;;;35.50;54.90;;;;;;5017311;28;20473;-71
2023/07/09 16:02:54;;;;;;;7.47;3.90;;;35.60;55.40;;;;;;5017369;28;20053;-71
2023/07/09 16:05:23;;;;;;;7.25;4.00;;;35.60;57.00;;;;;;5017280;28;20075;-72
2023/07/09 16:07:50;;;;;;;4.43;3.38;;;35.60;56.80;;;;;;5017065;28;20029;-71
2023/07/09 16:10:16;;;;;;;7.63;3.65;;;35.70;57.30;;;;;;5021718;28;20067;-71
2023/07/09 16:12:45;;;;;;;10.20;4.15;;;35.50;57.90;;;;;;5017648;28;20079;-71
2023/07/09 16:15:12;;;;;;;8.48;3.67;;;35.40;58.70;;;;;;5034899;28;20021;-71
2023/07/09 16:17:37;;;;;;;6.40;3.50;;;35.40;59.50;;;;;;5017199;28;20032;-71
2023/07/09 16:20:05;;;;;;;8.38;4.30;;;35.20;60.00;;;;;;5016860;28;20026;-71
2023/07/09 16:22:31;;;;;;;7.75;4.18;;;35.20;60.60;;;;;;5034670;28;20032;-71
2023/07/09 16:24:57;;;;;;;8.48;4.15;;;35.20;60.80;;;;;;5017421;28;20022;-72
2023/07/09 16:27:23;;;;;;;6.60;5.40;;;35.20;60.60;;;;;;5035057;28;20071;-72
2023/07/09 16:29:49;;;;;;;9.10;4.60;;;35.20;60.50;;;;;;5026165;23;20038;-71
2023/07/09 16:32:15;;;;;;;6.50;4.30;;;35.10;60.50;;;;;;4972421;28;20027;-72
2023/07/09 16:34:41;;;;;;;8.52;3.97;;;35.00;60.60;;;;;;4973950;28;20019;-72
2023/07/09 16:37:19;;;;;;;7.55;4.60;;;35.00;60.00;;;;;;4974355;28;20035;-73
2023/07/09 16:39:45;;;;;;;6.38;3.88;;;35.00;59.80;;;;;;4974490;28;20023;-72
2023/07/09 16:42:13;;;;;;;5.53;3.90;;;35.00;59.40;;;;;;4974537;28;20029;-72
2023/07/09 16:44:38;;;;;;;8.57;4.00;;;35.00;58.80;;;;;;4975955;28;20110;-73
2023/07/09 16:47:13;;;;;;;6.85;3.88;;;35.00;58.30;;;;;;4982725;28;20062;-72
2023/07/09 16:49:43;;;;;;;7.70;3.92;;;34.90;58.40;;;;;;4975136;28;20042;-72
2023/07/09 16:52:14;;;;;;;6.07;3.97;;;34.80;58.90;;;;;;4974601;28;20098;-72
2023/07/09 16:54:40;;;;;;;6.63;3.85;;;34.80;59.00;;;;;;4974682;28;20015;-73
2023/07/09 16:57:15;;;;;;;5.57;4.13;;;34.80;59.30;;;;;;4956714;28;20074;-73
2023/07/09 16:59:42;;;;;;;9.52;5.28;;;34.70;59.20;;;;;;4973928;28;20031;-73
2023/07/09 17:02:24;;;;;;;5.95;4.07;;;34.70;59.40;;;;;;4991082;28;20114;-73
2023/07/09 17:04:51;;;;;;;8.20;4.20;;;34.60;58.70;;;;;;4993774;28;20121;-73
2023/07/09 17:07:16;;;;;;;5.63;4.22;;;34.60;59.10;;;;;;4977526;28;20085;-73
2023/07/09 17:09:42;;;;;;;8.88;4.82;;;34.60;57.80;;;;;;4979550;28;20030;-73
2023/07/09 17:12:10;;;;;;;6.88;5.32;;;34.50;57.90;;;;;;4997911;28;20026;-72
2023/07/09 17:14:37;;;;;;;7.25;4.05;;;34.50;58.10;;;;;;4997423;28;20113;-72
2023/07/09 17:17:03;;;;;;;10.25;4.88;;;34.40;58.00;;;;;;4997236;28;20037;-72
2023/07/09 17:19:28;;;;;;;6.28;4.00;;;34.30;58.20;;;;;;4980018;28;20026;-73
2023/07/09 17:21:56;;;;;;;7.43;3.90;;;34.30;57.70;;;;;;4979709;28;20022;-72